createdAt,value
2022-12-12T12:59:36.929Z,1.70
2022-12-12T13:02:26.926Z,9.00
2022-12-12T13:05:09.604Z,8.80
2022-12-12T13:07:52.245Z,8.70
2022-12-12T13:10:25.711Z,8.70
2022-12-12T13:13:07.665Z,8.70
2022-12-12T13:15:48.343Z,8.50
2022-12-12T13:18:18.001Z,8.20
2022-12-12T13:21:00.790Z,7.90
2022-12-12T13:23:47.435Z,7.70
2022-12-12T13:26:33.602Z,7.60
2022-12-12T13:29:27.828Z,7.50
2022-12-12T13:32:07.399Z,7.50
2022-12-12T13:34:41.092Z,7.30
2022-12-12T13:37:08.572Z,7.20
2022-12-12T13:39:38.142Z,7.10
2022-12-12T13:42:07.983Z,7.00
2022-12-12T13:44:39.071Z,6.80
2022-12-12T13:47:24.732Z,6.60
2022-12-12T13:50:23.078Z,6.50
2022-12-12T13:53:19.104Z,6.40
2022-12-12T13:55:47.115Z,6.30
2022-12-12T13:58:17.509Z,6.20
2022-12-12T14:00:44.961Z,6.10
2022-12-12T14:03:12.112Z,5.80
2022-12-12T14:05:52.375Z,5.70
2022-12-12T14:08:24.065Z,5.60
2022-12-12T14:10:54.359Z,5.50
2022-12-12T14:13:24.488Z,5.50
2022-12-12T14:15:58.281Z,5.50
2022-12-12T14:18:49.316Z,5.50
2022-12-12T14:21:19.214Z,5.50
2022-12-12T14:23:50.108Z,5.30
2022-12-12T14:26:29.832Z,5.10
2022-12-12T14:29:18.930Z,5.00
2022-12-12T14:32:08.341Z,5.00
2022-12-12T14:34:57.179Z,4.90
2022-12-12T14:37:33.699Z,4.80
2022-12-12T14:40:21.733Z,4.70
2022-12-12T14:43:20.919Z,4.60
2022-12-12T14:45:49.397Z,4.40
2022-12-12T14:48:19.856Z,4.30
2022-12-12T14:51:10.395Z,4.20
2022-12-12T14:53:37.836Z,4.10
2022-12-12T14:56:19.206Z,4.10
2022-12-12T14:59:21.561Z,4.00
2022-12-12T15:02:18.648Z,3.90
2022-12-12T15:04:51.562Z,3.80
2022-12-12T15:07:33.707Z,3.70
2022-12-12T15:10:16.945Z,3.70
2022-12-12T15:12:44.993Z,3.60
2022-12-12T15:15:28.495Z,3.50
2022-12-12T15:17:59.545Z,3.40
2022-12-12T15:20:29.939Z,3.30
2022-12-12T15:23:19.612Z,3.20
2022-12-12T15:25:55.215Z,3.10
2022-12-12T15:28:25.097Z,3.00
2022-12-12T15:30:55.667Z,3.00
2022-12-12T15:33:38.124Z,2.90
2022-12-12T15:36:27.767Z,2.80
2022-12-12T15:39:24.081Z,2.70
2022-12-12T15:41:51.378Z,2.60
2022-12-12T15:44:21.196Z,2.50
2022-12-12T15:46:50.585Z,2.40
2022-12-12T15:49:37.891Z,2.30
2022-12-12T15:52:19.276Z,2.20
2022-12-12T15:54:54.855Z,2.10
2022-12-12T15:57:25.374Z,2.00
2022-12-12T16:00:04.585Z,2.00
2022-12-12T16:02:35.950Z,1.90
2022-12-12T16:05:18.432Z,1.80
2022-12-12T16:07:45.953Z,1.70
2022-12-12T16:10:21.383Z,1.60
2022-12-12T16:12:58.996Z,1.50
2022-12-12T16:15:36.999Z,1.50
2022-12-12T16:18:18.270Z,1.30
2022-12-12T16:20:51.966Z,1.30
2022-12-12T16:23:30.718Z,1.30
2022-12-12T16:26:00.229Z,1.20
2022-12-12T16:28:30.217Z,1.10
2022-12-12T16:31:00.456Z,1.10
2022-12-12T16:33:36.361Z,1.00
2022-12-12T16:36:09.695Z,1.00
2022-12-12T16:38:40.206Z,0.90
2022-12-12T16:41:13.956Z,0.80
2022-12-12T16:43:43.997Z,0.70
2022-12-12T16:46:29.749Z,0.70
2022-12-12T16:49:05.520Z,0.60
2022-12-12T16:51:35.442Z,0.60
2022-12-12T16:54:05.239Z,0.50
2022-12-12T16:56:34.537Z,0.50
2022-12-12T16:59:05.336Z,0.50
2022-12-12T17:01:38.934Z,0.40
2022-12-12T17:04:15.917Z,0.40
2022-12-12T17:06:43.281Z,0.30
2022-12-12T17:09:10.599Z,0.30
2022-12-12T17:11:38.495Z,0.30
2022-12-12T17:14:06.002Z,0.20
2022-12-12T17:16:36.676Z,0.20
2022-12-12T17:19:07.159Z,0.20
2022-12-12T17:21:34.247Z,0.10
2022-12-12T17:24:02.949Z,0.10
2022-12-12T17:26:30.909Z,0.10
2022-12-12T17:28:59.023Z,0.00
2022-12-12T17:31:26.441Z,0.00
2022-12-12T17:33:54.164Z,0.00
2022-12-12T17:36:21.661Z,-0.10
2022-12-12T17:38:49.155Z,-0.10
2022-12-12T17:41:16.578Z,-0.10
2022-12-12T17:43:43.796Z,-0.20
2022-12-12T17:46:16.774Z,-0.20
2022-12-12T17:48:47.442Z,-0.20
2022-12-12T17:51:17.824Z,-0.20
2022-12-12T17:53:44.833Z,-0.30
2022-12-12T17:56:17.548Z,-0.30
2022-12-12T17:58:46.965Z,-0.30
2022-12-12T18:01:24.359Z,-0.40
2022-12-12T18:03:51.835Z,-0.40
2022-12-12T18:06:22.075Z,-0.40
2022-12-12T18:08:51.649Z,-0.50
2022-12-12T18:11:24.587Z,-0.50
2022-12-12T18:13:54.013Z,-0.50
2022-12-12T18:16:23.829Z,-0.60
2022-12-12T18:18:52.032Z,-0.60
2022-12-12T18:21:58.579Z,-0.60
2022-12-12T18:24:10.856Z,-0.60
2022-12-12T18:26:38.187Z,-0.70
2022-12-12T18:29:08.536Z,-0.70
